sensor_id;sensor_type;location;lat;lon;timestamp;temperature;humidity
9265;DHT22;4669;49.594;10.958;2023-03-03T05:29:04;1.70;99.90
9265;DHT22;4669;49.594;10.958;2023-03-03T05:34:06;1.80;99.90
9265;DHT22;4669;49.594;10.958;2023-03-03T05:39:09;1.70;99.90
9265;DHT22;4669;49.594;10.958;2023-03-03T05:44:12;1.60;99.90
9265;DHT22;4669;49.594;10.958;2023-03-03T05:49:14;1.60;99.90
9265;DHT22;4669;49.594;10.958;2023-03-03T05:54:16;1.50;99.90
9265;DHT22;4669;49.594;10.958;2023-03-03T05:59:19;1.50;99.90
9265;DHT22;4669;49.594;10.958;2023-03-03T06:04:21;1.50;99.90
9265;DHT22;4669;49.594;10.958;2023-03-03T06:09:23;1.40;99.90
9265;DHT22;4669;49.594;10.958;2023-03-03T06:14:28;1.60;99.90
9265;DHT22;4669;49.594;10.958;2023-03-03T06:19:30;1.60;99.90
9265;DHT22;4669;49.594;10.958;2023-03-03T06:24:32;1.70;99.90
9265;DHT22;4669;49.594;10.958;2023-03-03T06:29:35;1.80;99.90
9265;DHT22;4669;49.594;10.958;2023-03-03T06:34:37;1.80;99.90
9265;DHT22;4669;49.594;10.958;2023-03-03T06:39:39;1.80;99.90
9265;DHT22;4669;49.594;10.958;2023-03-03T06:44:43;1.80;99.90
9265;DHT22;4669;49.594;10.958;2023-03-03T06:49:45;1.80;99.90
9265;DHT22;4669;49.594;10.958;2023-03-03T06:54:47;1.90;99.90
9265;DHT22;4669;49.594;10.958;2023-03-03T06:59:52;1.90;99.90
9265;DHT22;4669;49.594;10.958;2023-03-03T07:04:55;1.90;99.90
9265;DHT22;4669;49.594;10.958;2023-03-03T07:09:58;1.90;99.90
9265;DHT22;4669;49.594;10.958;2023-03-03T07:15:14;2.00;99.90
9265;DHT22;4669;49.594;10.958;2023-03-03T07:20:20;2.20;99.90
9265;DHT22;4669;49.594;10.958;2023-03-03T07:25:28;2.30;99.90
9265;DHT22;4669;49.594;10.958;2023-03-03T07:30:32;2.40;99.90
9265;DHT22;4669;49.594;10.958;2023-03-03T07:35:37;2.30;99.90
9265;DHT22;4669;49.594;10.958;2023-03-03T07:40:41;2.40;99.90
9265;DHT22;4669;49.594;10.958;2023-03-03T07:45:48;2.40;99.90
9265;DHT22;4669;49.594;10.958;2023-03-03T07:50:51;2.40;99.90
9265;DHT22;4669;49.594;10.958;2023-03-03T07:55:53;2.50;99.90
9265;DHT22;4669;49.594;10.958;2023-03-03T08:06:44;2.70;99.90
9265;DHT22;4669;49.594;10.958;2023-03-03T08:11:50;2.90;99.90
9265;DHT22;4669;49.594;10.958;2023-03-03T08:16:55;3.10;99.90
9265;DHT22;4669;49.594;10.958;2023-03-03T08:22:01;3.20;99.90
9265;DHT22;4669;49.594;10.958;2023-03-03T08:27:10;3.30;99.90
9265;DHT22;4669;49.594;10.958;2023-03-03T08:32:12;3.40;99.90
9265;DHT22;4669;49.594;10.958;2023-03-03T08:37:15;3.40;99.90
9265;DHT22;4669;49.594;10.958;2023-03-03T08:42:17;3.50;99.90
9265;DHT22;4669;49.594;10.958;2023-03-03T08:47:19;3.50;99.90
9265;DHT22;4669;49.594;10.958;2023-03-03T08:52:22;3.60;99.90
9265;DHT22;4669;49.594;10.958;2023-03-03T08:57:25;3.60;99.90
9265;DHT22;4669;49.594;10.958;2023-03-03T09:02:27;3.70;99.90
9265;DHT22;4669;49.594;10.958;2023-03-03T09:07:30;3.80;99.90
9265;DHT22;4669;49.594;10.958;2023-03-03T09:12:34;4.00;99.90
9265;DHT22;4669;49.594;10.958;2023-03-03T09:17:36;4.00;99.90
9265;DHT22;4669;49.594;10.958;2023-03-03T09:22:40;4.10;99.90
9265;DHT22;4669;49.594;10.958;2023-03-03T09:27:42;4.10;99.90
9265;DHT22;4669;49.594;10.958;2023-03-03T09:32:44;4.30;99.90
9265;DHT22;4669;49.594;10.958;2023-03-03T09:37:49;4.40;99.90
9265;DHT22;4669;49.594;10.958;2023-03-03T09:42:59;4.60;99.90
9265;DHT22;4669;49.594;10.958;2023-03-03T09:48:14;4.60;99.90
9265;DHT22;4669;49.594;10.958;2023-03-03T09:53:37;4.70;99.90
9265;DHT22;4669;49.594;10.958;2023-03-03T09:58:56;4.70;99.90
9265;DHT22;4669;49.594;10.958;2023-03-03T10:04:21;4.70;99.90
9265;DHT22;4669;49.594;10.958;2023-03-03T10:09:45;5.00;99.90
9265;DHT22;4669;49.594;10.958;2023-03-03T10:15:11;4.90;99.90
9265;DHT22;4669;49.594;10.958;2023-03-03T10:20:36;4.90;99.90
9265;DHT22;4669;49.594;10.958;2023-03-03T10:25:41;5.10;99.90
9265;DHT22;4669;49.594;10.958;2023-03-03T10:30:50;5.20;99.90
9265;DHT22;4669;49.594;10.958;2023-03-03T10:41:33;5.50;99.80
9265;DHT22;4669;49.594;10.958;2023-03-03T10:46:58;5.50;99.80
9265;DHT22;4669;49.594;10.958;2023-03-03T10:52:20;5.50;99.90
9265;DHT22;4669;49.594;10.958;2023-03-03T10:57:31;5.70;99.40
9265;DHT22;4669;49.594;10.958;2023-03-03T11:02:40;5.80;99.70
9265;DHT22;4669;49.594;10.958;2023-03-03T11:07:48;5.90;99.70
9265;DHT22;4669;49.594;10.958;2023-03-03T11:13:02;5.90;99.30
9265;DHT22;4669;49.594;10.958;2023-03-03T11:18:24;6.10;99.10
9265;DHT22;4669;49.594;10.958;2023-03-03T11:23:57;6.30;98.60
9265;DHT22;4669;49.594;10.958;2023-03-03T11:34:47;6.30;97.90
9265;DHT22;4669;49.594;10.958;2023-03-03T11:39:55;6.30;98.50
9265;DHT22;4669;49.594;10.958;2023-03-03T11:45:10;6.60;97.10
9265;DHT22;4669;49.594;10.958;2023-03-03T11:50:17;6.70;97.90
9265;DHT22;4669;49.594;10.958;2023-03-03T11:55:26;6.90;97.20
9265;DHT22;4669;49.594;10.958;2023-03-03T12:00:32;6.90;96.80
9265;DHT22;4669;49.594;10.958;2023-03-03T12:05:45;7.10;96.30
9265;DHT22;4669;49.594;10.958;2023-03-03T12:10:51;7.10;96.10
9265;DHT22;4669;49.594;10.958;2023-03-03T12:16:05;7.10;97.20
9265;DHT22;4669;49.594;10.958;2023-03-03T12:21:18;7.10;97.60
9265;DHT22;4669;49.594;10.958;2023-03-03T12:26:27;7.50;97.60
9265;DHT22;4669;49.594;10.958;2023-03-03T12:31:39;7.60;97.90
9265;DHT22;4669;49.594;10.958;2023-03-03T12:37:01;7.50;97.60
9265;DHT22;4669;49.594;10.958;2023-03-03T12:42:12;7.70;97.30
9265;DHT22;4669;49.594;10.958;2023-03-03T12:47:23;8.00;96.70
9265;DHT22;4669;49.594;10.958;2023-03-03T12:52:30;8.10;96.90
9265;DHT22;4669;49.594;10.958;2023-03-03T12:57:39;8.20;96.20
9265;DHT22;4669;49.594;10.958;2023-03-03T13:02:52;8.40;96.40
9265;DHT22;4669;49.594;10.958;2023-03-03T13:08:14;8.60;95.90
9265;DHT22;4669;49.594;10.958;2023-03-03T13:13:24;8.90;95.40
9265;DHT22;4669;49.594;10.958;2023-03-03T13:18:36;9.00;95.00
9265;DHT22;4669;49.594;10.958;2023-03-03T13:23:47;8.90;94.80
9265;DHT22;4669;49.594;10.958;2023-03-03T13:29:02;9.00;94.50
9265;DHT22;4669;49.594;10.958;2023-03-03T13:34:16;9.20;94.20
9265;DHT22;4669;49.594;10.958;2023-03-03T13:39:24;9.30;94.30
9265;DHT22;4669;49.594;10.958;2023-03-03T13:44:30;9.30;94.50
9265;DHT22;4669;49.594;10.958;2023-03-03T13:49:48;9.50;94.50
9265;DHT22;4669;49.594;10.958;2023-03-03T13:55:08;9.60;94.10
9265;DHT22;4669;49.594;10.958;2023-03-03T14:00:20;9.80;93.60
9265;DHT22;4669;49.594;10.958;2023-03-03T14:05:32;9.70;93.70
9265;DHT22;4669;49.594;10.958;2023-03-03T14:10:40;9.80;94.20
9265;DHT22;4669;49.594;10.958;2023-03-03T14:15:49;10.00;93.60
9265;DHT22;4669;49.594;10.958;2023-03-03T14:20:55;10.10;93.10
9265;DHT22;4669;49.594;10.958;2023-03-03T14:26:06;10.00;93.30
9265;DHT22;4669;49.594;10.958;2023-03-03T14:31:21;10.10;93.50
9265;DHT22;4669;49.594;10.958;2023-03-03T14:36:38;10.20;93.30
9265;DHT22;4669;49.594;10.958;2023-03-03T14:41:41;10.20;93.40
9265;DHT22;4669;49.594;10.958;2023-03-03T14:46:43;10.20;93.50
9265;DHT22;4669;49.594;10.958;2023-03-03T14:51:48;10.20;93.40
9265;DHT22;4669;49.594;10.958;2023-03-03T14:56:59;10.40;93.30
9265;DHT22;4669;49.594;10.958;2023-03-03T15:02:27;10.30;93.40
9265;DHT22;4669;49.594;10.958;2023-03-03T15:07:32;10.30;93.00
9265;DHT22;4669;49.594;10.958;2023-03-03T15:12:37;10.20;93.30
9265;DHT22;4669;49.594;10.958;2023-03-03T15:17:42;10.20;93.20
9265;DHT22;4669;49.594;10.958;2023-03-03T15:22:51;10.30;92.90
9265;DHT22;4669;49.594;10.958;2023-03-03T15:28:09;10.40;92.70
9265;DHT22;4669;49.594;10.958;2023-03-03T15:33:21;10.30;92.70
9265;DHT22;4669;49.594;10.958;2023-03-03T15:38:36;10.20;93.00
9265;DHT22;4669;49.594;10.958;2023-03-03T15:43:48;10.00;93.10
9265;DHT22;4669;49.594;10.958;2023-03-03T15:49:03;10.00;92.90
9265;DHT22;4669;49.594;10.958;2023-03-03T15:54:24;9.70;92.90
9265;DHT22;4669;49.594;10.958;2023-03-03T16:05:20;9.10;93.70
9265;DHT22;4669;49.594;10.958;2023-03-03T16:10:31;8.90;93.20
9265;DHT22;4669;49.594;10.958;2023-03-03T16:15:49;8.80;92.30
9265;DHT22;4669;49.594;10.958;2023-03-03T16:21:02;8.70;91.90
9265;DHT22;4669;49.594;10.958;2023-03-03T16:26:12;8.50;92.20
9265;DHT22;4669;49.594;10.958;2023-03-03T16:31:20;8.40;92.40
9265;DHT22;4669;49.594;10.958;2023-03-03T16:36:31;8.20;92.50
9265;DHT22;4669;49.594;10.958;2023-03-03T16:41:49;8.20;92.20
9265;DHT22;4669;49.594;10.958;2023-03-03T16:46:52;8.10;92.30
9265;DHT22;4669;49.594;10.958;2023-03-03T16:52:00;8.10;91.60
9265;DHT22;4669;49.594;10.958;2023-03-03T16:57:12;8.00;91.30
9265;DHT22;4669;49.594;10.958;2023-03-03T17:08:10;7.70;91.40
9265;DHT22;4669;49.594;10.958;2023-03-03T17:13:25;7.50;91.90
9265;DHT22;4669;49.594;10.958;2023-03-03T17:18:38;7.40;92.00
9265;DHT22;4669;49.594;10.958;2023-03-03T17:23:52;7.20;92.00
9265;DHT22;4669;49.594;10.958;2023-03-03T17:29:09;7.10;92.80
9265;DHT22;4669;49.594;10.958;2023-03-03T17:34:24;7.00;92.80
9265;DHT22;4669;49.594;10.958;2023-03-03T17:39:49;6.90;92.70
9265;DHT22;4669;49.594;10.958;2023-03-03T17:45:01;6.90;92.90
9265;DHT22;4669;49.594;10.958;2023-03-03T17:50:22;6.80;93.20
9265;DHT22;4669;49.594;10.958;2023-03-03T18:00:57;6.70;93.80
9265;DHT22;4669;49.594;10.958;2023-03-03T18:06:13;6.60;94.10
9265;DHT22;4669;49.594;10.958;2023-03-03T18:11:44;6.50;94.20
9265;DHT22;4669;49.594;10.958;2023-03-03T18:17:14;6.50;94.30
9265;DHT22;4669;49.594;10.958;2023-03-03T18:22:24;6.40;94.60
9265;DHT22;4669;49.594;10.958;2023-03-03T18:27:35;6.30;94.70
9265;DHT22;4669;49.594;10.958;2023-03-03T18:32:41;6.20;94.80
9265;DHT22;4669;49.594;10.958;2023-03-03T18:37:46;6.20;94.80
9265;DHT22;4669;49.594;10.958;2023-03-03T18:42:48;6.10;95.00
9265;DHT22;4669;49.594;10.958;2023-03-03T18:48:03;6.10;95.20
9265;DHT22;4669;49.594;10.958;2023-03-03T18:53:25;6.10;95.30
9265;DHT22;4669;49.594;10.958;2023-03-03T18:58:38;6.00;95.20
9265;DHT22;4669;49.594;10.958;2023-03-03T19:04:08;5.90;95.70
9265;DHT22;4669;49.594;10.958;2023-03-03T19:09:18;5.90;96.20
9265;DHT22;4669;49.594;10.958;2023-03-03T19:14:31;5.90;96.60
9265;DHT22;4669;49.594;10.958;2023-03-03T19:19:58;5.80;96.80
9265;DHT22;4669;49.594;10.958;2023-03-03T19:25:16;5.80;97.00
9265;DHT22;4669;49.594;10.958;2023-03-03T19:30:41;5.70;97.10
9265;DHT22;4669;49.594;10.958;2023-03-03T19:36:00;5.70;97.10
9265;DHT22;4669;49.594;10.958;2023-03-03T19:41:19;5.70;97.20
9265;DHT22;4669;49.594;10.958;2023-03-03T19:46:38;5.70;97.30
9265;DHT22;4669;49.594;10.958;2023-03-03T19:51:52;5.60;97.20
9265;DHT22;4669;49.594;10.958;2023-03-03T19:57:01;5.50;97.00
9265;DHT22;4669;49.594;10.958;2023-03-03T20:02:26;5.40;96.90
9265;DHT22;4669;49.594;10.958;2023-03-03T20:07:36;5.30;97.00
9265;DHT22;4669;49.594;10.958;2023-03-03T20:12:50;5.20;97.40
9265;DHT22;4669;49.594;10.958;2023-03-03T20:18:18;5.10;97.20
9265;DHT22;4669;49.594;10.958;2023-03-03T20:23:28;5.00;97.20
9265;DHT22;4669;49.594;10.958;2023-03-03T20:28:58;4.90;97.20
9265;DHT22;4669;49.594;10.958;2023-03-03T20:34:10;4.90;97.30
9265;DHT22;4669;49.594;10.958;2023-03-03T20:39:21;4.80;97.40
9265;DHT22;4669;49.594;10.958;2023-03-03T20:44:42;4.70;97.80
9265;DHT22;4669;49.594;10.958;2023-03-03T20:50:00;4.70;97.80
9265;DHT22;4669;49.594;10.958;2023-03-03T20:55:12;4.70;97.90
9265;DHT22;4669;49.594;10.958;2023-03-03T21:00:22;4.60;98.00
9265;DHT22;4669;49.594;10.958;2023-03-03T21:05:26;4.60;98.20
9265;DHT22;4669;49.594;10.958;2023-03-03T21:10:31;4.50;98.40
9265;DHT22;4669;49.594;10.958;2023-03-03T21:15:35;4.40;98.60
9265;DHT22;4669;49.594;10.958;2023-03-03T21:20:37;4.30;98.90
9265;DHT22;4669;49.594;10.958;2023-03-03T21:25:46;4.30;99.00
9265;DHT22;4669;49.594;10.958;2023-03-03T21:31:11;4.30;99.10
9265;DHT22;4669;49.594;10.958;2023-03-03T21:36:15;4.10;99.50
9265;DHT22;4669;49.594;10.958;2023-03-03T21:41:19;3.90;99.60
9265;DHT22;4669;49.594;10.958;2023-03-03T21:46:22;3.80;99.90
9265;DHT22;4669;49.594;10.958;2023-03-03T21:51:24;3.70;99.90
9265;DHT22;4669;49.594;10.958;2023-03-03T21:56:29;3.80;99.90
9265;DHT22;4669;49.594;10.958;2023-03-03T22:01:34;3.80;99.90
9265;DHT22;4669;49.594;10.958;2023-03-03T22:06:36;3.80;99.90
9265;DHT22;4669;49.594;10.958;2023-03-03T22:11:39;3.80;99.90
9265;DHT22;4669;49.594;10.958;2023-03-03T22:16:41;3.70;99.90
9265;DHT22;4669;49.594;10.958;2023-03-03T22:21:43;3.70;99.90
9265;DHT22;4669;49.594;10.958;2023-03-03T22:26:47;3.60;99.90
9265;DHT22;4669;49.594;10.958;2023-03-03T22:31:49;3.50;99.90
9265;DHT22;4669;49.594;10.958;2023-03-03T22:36:52;3.50;99.90
9265;DHT22;4669;49.594;10.958;2023-03-03T22:41:55;3.40;99.90
9265;DHT22;4669;49.594;10.958;2023-03-03T22:46:57;3.40;99.90
9265;DHT22;4669;49.594;10.958;2023-03-03T22:51:59;3.40;99.90
9265;DHT22;4669;49.594;10.958;2023-03-03T22:57:03;3.40;99.90
